Meteorología y climatología de Navarra
Datos de la estación - Meteo Navarra

Estación de Pamplona GN

Altitud 455 m.


Datos desde el 11/10/2018 hasta el 12/10/2018 en horario solar
Los datos son PROVISIONALES

Anterior Página 1 de 1 Siguiente Descargar: Formato para Excel 2000 o superior   Formato csv   Formato para OpenOffice Calc
Fecha Temperatura Humedad relativa Radiación global Insolación Precipitación Velocidad viento 10 m Velocidad viento 10 m Dirección viento 10 m
ºC % W/m² s l/m² m/s km/h º
11/10/2018 0:00 17.1 67 0.0 0 0.0 2.7 9.6 129
11/10/2018 0:10 17.1 68 0.0 0 0.0 2.5 9.1 121
11/10/2018 0:20 17.1 68 0.0 0 0.0 2.3 8.2 114
11/10/2018 0:30 17.0 68 0.0 0 0.0 3.0 10.9 127
11/10/2018 0:40 17.2 68 0.0 0 0.0 2.8 10.0 134
11/10/2018 0:50 17.1 68 0.0 0 0.0 3.5 12.5 140
11/10/2018 1:00 17.1 68 0.0 0 0.0 3.4 12.2 132
11/10/2018 1:10 17.2 68 0.0 0 0.0 3.8 13.6 140
11/10/2018 1:20 17.3 68 0.0 0 0.0 4.0 14.5 131
11/10/2018 1:30 17.3 69 0.0 0 0.0 4.4 15.7 128
11/10/2018 1:40 17.3 69 0.0 0 0.0 3.4 12.1 127
11/10/2018 1:50 17.2 69 0.0 0 0.0 3.1 11.3 134
11/10/2018 2:00 17.4 68 0.0 0 0.0 2.9 10.4 133
11/10/2018 2:10 17.3 68 0.0 0 0.0 2.6 9.3 125
11/10/2018 2:20 17.5 68 0.0 0 0.0 3.4 12.2 117
11/10/2018 2:30 17.4 68 0.0 0 0.0 2.4 8.6 117
11/10/2018 2:40 17.3 69 0.0 0 0.0 2.7 9.7 119
11/10/2018 2:50 17.3 69 0.0 0 0.0 3.0 10.9 111
11/10/2018 3:00 17.1 70 0.0 0 0.0 2.7 9.6 109
11/10/2018 3:10 17.1 70 0.0 0 0.0 3.0 10.7 105
11/10/2018 3:20 17.2 69 0.0 0 0.0 3.4 12.3 113
11/10/2018 3:30 17.3 68 0.0 0 0.0 4.3 15.4 122
11/10/2018 3:40 17.5 67 0.0 0 0.0 4.3 15.4 117
11/10/2018 3:50 17.4 68 0.0 0 0.0 3.2 11.4 120
11/10/2018 4:00 17.3 68 0.0 0 0.0 3.1 11.2 109
11/10/2018 4:10 17.2 68 0.0 0 0.0 3.6 12.8 116
11/10/2018 4:20 17.3 68 0.0 0 0.0 3.2 11.3 117
11/10/2018 4:30 17.2 69 0.0 0 0.0 3.2 11.4 125
11/10/2018 4:40 17.2 69 0.0 0 0.0 2.8 9.9 123
11/10/2018 4:50 17.1 70 0.0 0 0.0 4.0 14.2 119
11/10/2018 5:00 17.1 70 0.0 0 0.0 3.5 12.5 118
11/10/2018 5:10 17.0 71 0.0 0 0.0 3.2 11.4 123
11/10/2018 5:20 17.0 71 0.0 0 0.0 3.3 11.9 120
11/10/2018 5:30 17.0 70 0.0 0 0.0 2.4 8.5 114
11/10/2018 5:40 17.0 70 0.0 0 0.0 3.3 12.0 129
11/10/2018 5:50 17.0 71 0.0 0 0.0 3.7 13.3 129
11/10/2018 6:00 17.2 70 0.0 0 0.0 3.2 11.6 143
11/10/2018 6:10 17.1 70 0.0 0 0.0 3.9 13.9 135
11/10/2018 6:20 17.2 70 8.1 0 0.0 3.7 13.1 134
11/10/2018 6:30 17.3 70 19.5 0 0.0 3.3 11.8 130
11/10/2018 6:40 17.4 69 24.6 70 0.0 3.2 11.6 133
11/10/2018 6:50 17.5 68 32.5 214 0.0 3.0 10.6 133
11/10/2018 7:00 17.5 69 34.1 0 0.0 2.2 7.8 133
11/10/2018 7:10 17.4 69 48.6 0 0.0 2.4 8.6 128
11/10/2018 7:20 17.5 69 62.5 0 0.0 2.4 8.5 130
11/10/2018 7:30 17.7 68 128.8 314 0.0 2.2 7.8 132
11/10/2018 7:40 18.1 67 99.3 46 0.0 2.4 8.5 137
11/10/2018 7:50 18.1 67 111.5 0 0.0 2.0 7.2 122
11/10/2018 8:00 18.1 67 148.0 246 0.0 2.0 7.2 128
11/10/2018 8:10 18.4 65 221.2 600 0.0 2.2 7.9 152
11/10/2018 8:20 18.9 63 262.1 600 0.0 2.0 7.2 121
11/10/2018 8:30 19.3 62 309.3 600 0.0 2.0 7.2 112
11/10/2018 8:40 19.5 62 244.6 578 0.0 1.4 4.9 116
11/10/2018 8:50 19.4 62 216.0 12 0.0 2.4 8.7 111
11/10/2018 9:00 19.5 62 196.8 0 0.0 2.4 8.7 133
11/10/2018 9:10 19.6 61 223.0 52 0.0 2.3 8.3 133
11/10/2018 9:20 19.9 61 435.0 600 0.0 2.7 9.6 131
11/10/2018 9:30 20.5 59 582.1 600 0.0 3.2 11.5 124
11/10/2018 9:40 21.0 58 398.5 390 0.0 2.5 8.9 121
11/10/2018 9:50 20.8 58 303.4 304 0.0 3.3 11.8 130
11/10/2018 10:00 20.9 57 290.1 118 0.0 3.9 14.1 147
11/10/2018 10:10 21.2 55 402.4 382 0.0 3.5 12.4 144
11/10/2018 10:20 21.2 56 170.8 0 0.0 4.2 15.2 134
11/10/2018 10:30 21.1 57 259.7 124 0.0 2.6 9.4 125
11/10/2018 10:40 21.6 56 317.5 218 0.0 3.7 13.3 128
11/10/2018 10:50 21.6 55 156.0 0 0.0 2.8 9.9 146
11/10/2018 11:00 21.5 55 99.2 0 0.0 3.6 12.8 138
11/10/2018 11:10 21.3 56 64.6 0 0.0 3.4 12.3 138
11/10/2018 11:20 21.1 57 64.2 0 0.0 3.1 11.2 136
11/10/2018 11:30 20.9 58 104.9 0 0.0 3.3 11.8 140
11/10/2018 11:40 20.8 58 75.4 0 0.0 2.6 9.4 130
11/10/2018 11:50 20.5 61 105.0 0 0.0 3.1 11.1 137
11/10/2018 12:00 19.9 66 160.3 0 0.1 2.5 9.0 121
11/10/2018 12:10 20.1 64 253.7 0 0.0 3.1 11.0 131
11/10/2018 12:20 20.6 61 141.1 0 0.0 3.3 11.7 134
11/10/2018 12:30 20.6 60 113.4 0 0.0 3.5 12.7 136
11/10/2018 12:40 20.7 60 84.0 0 0.0 3.5 12.5 130
11/10/2018 12:50 20.7 60 73.1 0 0.0 2.6 9.4 130
11/10/2018 13:00 20.7 60 101.1 0 0.0 2.3 8.2 127
11/10/2018 13:10 20.8 60 88.9 0 0.0 3.8 13.6 113
11/10/2018 13:20 20.8 60 150.5 0 0.0 3.6 12.9 111
11/10/2018 13:30 20.9 59 133.8 0 0.0 3.7 13.4 117
11/10/2018 13:40 21.0 59 191.9 0 0.0 4.3 15.5 105
11/10/2018 13:50 21.1 58 128.3 0 0.0 4.9 17.5 112
11/10/2018 14:00 21.4 57 183.2 0 0.0 4.8 17.4 129
11/10/2018 14:10 21.5 57 259.6 178 0.0 3.9 13.9 134
11/10/2018 14:20 22.0 55 269.3 216 0.0 3.6 12.9 155
11/10/2018 14:30 22.4 54 193.0 0 0.0 2.7 9.8 135
11/10/2018 14:40 22.3 55 141.8 0 0.0 2.8 9.9 141
11/10/2018 14:50 22.3 54 101.5 0 0.0 3.1 11.2 167
11/10/2018 15:00 22.3 55 94.4 0 0.0 2.7 9.8 148
11/10/2018 15:10 22.2 55 92.8 0 0.0 1.8 6.3 137
11/10/2018 15:20 22.2 56 86.3 0 0.0 3.0 10.8 140
11/10/2018 15:30 21.7 59 40.1 0 0.0 2.9 10.5 131
11/10/2018 15:40 21.5 59 43.5 0 0.0 2.7 9.7 148
11/10/2018 15:50 21.2 62 69.2 0 0.0 2.1 7.6 138
11/10/2018 16:00 21.1 63 74.6 0 0.0 2.1 7.4 134
11/10/2018 16:10 21.0 63 53.1 0 0.0 2.5 9.1 145
11/10/2018 16:20 21.1 63 40.9 0 0.0 2.3 8.4 145
11/10/2018 16:30 20.9 63 30.8 0 0.0 2.7 9.6 108
11/10/2018 16:40 20.8 64 26.4 0 0.0 2.5 8.9 113
11/10/2018 16:50 20.9 63 19.3 0 0.0 1.6 5.8 120
11/10/2018 17:00 21.0 62 1.6 0 0.0 1.5 5.3 155
11/10/2018 17:10 21.1 61 0.0 0 0.0 1.3 4.5 166
11/10/2018 17:20 21.2 61 0.0 0 0.0 0.4 1.5 112
11/10/2018 17:30 21.1 61 0.0 0 0.0 1.8 6.6 141
11/10/2018 17:40 21.1 61 0.0 0 0.0 2.2 8.0 134
11/10/2018 17:50 21.1 61 0.0 0 0.0 2.2 8.0 123
11/10/2018 18:00 21.1 61 0.0 0 0.0 1.9 6.8 129
11/10/2018 18:10 21.1 61 0.0 0 0.0 1.5 5.5 140
11/10/2018 18:20 21.1 61 0.0 0 0.0 1.7 6.1 126
11/10/2018 18:30 21.1 61 0.0 0 0.0 2.1 7.6 133
11/10/2018 18:40 21.0 62 0.0 0 0.0 2.0 7.1 121
11/10/2018 18:50 20.7 65 0.0 0 0.0 1.9 6.9 150
11/10/2018 19:00 20.8 63 0.0 0 0.0 1.2 4.3 165
11/10/2018 19:10 20.9 63 0.0 0 0.0 1.5 5.4 129
11/10/2018 19:20 20.8 63 0.0 0 0.0 2.3 8.2 125
11/10/2018 19:30 20.7 63 0.0 0 0.0 1.7 6.1 117
11/10/2018 19:40 20.7 64 0.0 0 0.0 2.1 7.5 128
11/10/2018 19:50 20.6 64 0.0 0 0.0 2.4 8.7 126
11/10/2018 20:00 20.6 63 0.0 0 0.0 2.7 9.9 121
11/10/2018 20:10 20.7 63 0.0 0 0.0 2.7 9.6 118
11/10/2018 20:20 20.8 63 0.0 0 0.0 1.7 6.0 133
11/10/2018 20:30 20.8 63 0.0 0 0.0 2.2 7.8 125
11/10/2018 20:40 20.8 62 0.0 0 0.0 2.8 9.9 134
11/10/2018 20:50 20.8 62 0.0 0 0.0 2.1 7.5 123
11/10/2018 21:00 20.8 63 0.0 0 0.0 2.5 9.0 118
11/10/2018 21:10 20.7 63 0.0 0 0.0 2.9 10.6 127
11/10/2018 21:20 20.7 62 0.0 0 0.0 2.9 10.3 125
11/10/2018 21:30 20.7 62 0.0 0 0.0 2.9 10.3 124
11/10/2018 21:40 20.7 62 0.0 0 0.0 2.8 10.0 132
11/10/2018 21:50 20.6 62 0.0 0 0.0 2.2 7.8 135
11/10/2018 22:00 20.6 62 0.0 0 0.0 2.4 8.6 127
11/10/2018 22:10 20.5 62 0.0 0 0.0 2.0 7.0 137
11/10/2018 22:20 20.6 62 0.0 0 0.0 1.7 6.2 142
11/10/2018 22:30 20.6 62 0.0 0 0.0 2.3 8.1 136
11/10/2018 22:40 20.7 62 0.0 0 0.0 2.1 7.6 140
11/10/2018 22:50 20.6 62 0.0 0 0.0 2.2 8.0 133
11/10/2018 23:00 20.6 62 0.0 0 0.0 2.6 9.5 137
11/10/2018 23:10 20.5 63 0.0 0 0.0 2.6 9.4 138
11/10/2018 23:20 20.5 63 0.0 0 0.0 3.2 11.4 132
11/10/2018 23:30 20.4 64 0.0 0 0.0 2.7 9.9 134
11/10/2018 23:40 20.4 64 0.0 0 0.0 2.1 7.6 127
11/10/2018 23:50 20.5 64 0.0 0 0.0 2.5 9.0 115
Anterior Página 1 de 1 Siguiente

NOTA: Tipo de datos según el color:
   - Valores diarios o 10 minutos correctos
   - Valores diarios calculados a partir de un número de datos 10 minutos menor que 144 y mayor que 120, o de un número de datos semihorarios menor que 48 y mayor que 40 (caso de las estaciones de Riegos de Navarra y del MARM)
   - Valores diez minutos estimados


Contacto        Enlaces        Aviso legal